createdAt,value
2022-10-05T00:07:38.731Z,32.60
2022-10-05T00:17:41.866Z,36.60
2022-10-05T00:27:45.982Z,36.47
2022-10-05T00:37:53.012Z,39.10
2022-10-05T00:48:00.142Z,34.60
2022-10-05T00:58:27.607Z,33.60
2022-10-05T01:08:37.041Z,34.60
2022-10-05T01:18:50.210Z,39.00
2022-10-05T01:29:15.686Z,37.92
2022-10-05T01:39:30.416Z,40.07
2022-10-05T01:49:51.859Z,37.90
2022-10-05T02:00:16.063Z,43.03
2022-10-05T02:10:28.658Z,38.43
2022-10-05T02:20:33.779Z,40.22
2022-10-05T02:30:43.086Z,35.20
2022-10-05T02:41:12.649Z,39.60
2022-10-05T02:51:28.293Z,38.77
2022-10-05T03:01:41.334Z,36.00
2022-10-05T03:12:19.604Z,39.42
2022-10-05T03:22:26.238Z,39.10
2022-10-05T03:32:36.612Z,35.80
2022-10-05T03:42:58.304Z,39.23
2022-10-05T03:53:09.344Z,35.17
2022-10-05T04:03:47.450Z,35.70
2022-10-05T04:13:56.023Z,38.23
2022-10-05T04:24:11.225Z,34.77
2022-10-05T04:34:36.737Z,33.33
2022-10-05T04:44:51.091Z,30.23
2022-10-05T04:55:17.291Z,36.95
2022-10-05T05:05:48.419Z,30.77
2022-10-05T05:16:28.543Z,25.57
2022-10-05T05:26:52.095Z,28.67
2022-10-05T05:37:31.126Z,28.77
2022-10-05T05:47:40.767Z,29.90
2022-10-05T05:57:50.567Z,29.50
2022-10-05T06:07:53.828Z,32.93
2022-10-05T06:18:01.236Z,30.73
2022-10-05T06:28:08.310Z,28.27
2022-10-05T06:38:12.426Z,33.50
2022-10-05T06:48:22.950Z,34.30
2022-10-05T06:58:46.083Z,60.83
2022-10-05T07:09:10.923Z,24.33
2022-10-05T07:19:18.319Z,22.70
2022-10-05T07:29:23.470Z,19.30
2022-10-05T07:39:58.457Z,21.60
2022-10-05T07:50:11.678Z,20.83
2022-10-05T08:00:18.105Z,24.00
2022-10-05T08:10:50.331Z,23.57
2022-10-05T08:20:56.127Z,23.27
2022-10-05T08:31:14.745Z,21.90
2022-10-05T08:41:36.951Z,25.03
2022-10-05T08:52:20.780Z,24.00
2022-10-05T09:02:54.741Z,24.83
2022-10-05T09:13:08.286Z,27.92
2022-10-05T09:23:19.540Z,29.53
2022-10-05T09:33:23.889Z,26.23
2022-10-05T09:43:37.668Z,25.77
2022-10-05T09:54:01.975Z,25.30
2022-10-05T10:04:28.382Z,25.35
2022-10-05T10:15:09.311Z,27.30
2022-10-05T10:25:19.574Z,29.27
2022-10-05T10:35:35.611Z,21.17
2022-10-05T10:46:07.054Z,27.20
2022-10-05T10:56:20.494Z,25.05
2022-10-05T11:06:48.256Z,23.70
2022-10-05T11:16:55.617Z,26.07
2022-10-05T11:26:59.939Z,25.07
2022-10-05T11:37:19.577Z,23.27
2022-10-05T11:47:33.899Z,25.27
2022-10-05T11:57:41.376Z,19.53
2022-10-05T12:08:03.579Z,18.77
2022-10-05T12:18:13.329Z,17.37
2022-10-05T12:28:27.930Z,16.40
2022-10-05T12:38:45.990Z,13.57
2022-10-05T12:49:06.211Z,15.47
2022-10-05T12:59:44.516Z,14.77
2022-10-05T13:10:18.278Z,10.63
2022-10-05T13:20:32.813Z,14.07
2022-10-05T13:30:35.475Z,12.68
2022-10-05T13:40:58.609Z,14.07
2022-10-05T13:51:20.339Z,12.33
2022-10-05T14:01:40.552Z,13.90
2022-10-05T14:11:51.266Z,13.60
2022-10-05T14:21:54.786Z,16.00
2022-10-05T14:32:01.717Z,15.67
2022-10-05T14:42:15.186Z,12.90
2022-10-05T14:52:31.242Z,14.80
2022-10-05T15:02:56.721Z,13.63
2022-10-05T15:13:17.138Z,11.77
2022-10-05T15:23:52.082Z,12.43
2022-10-05T15:34:05.113Z,9.80
2022-10-05T15:44:33.341Z,13.30
2022-10-05T15:54:56.698Z,12.90
2022-10-05T16:05:26.155Z,11.88
2022-10-05T16:15:33.534Z,14.93
2022-10-05T16:25:54.303Z,11.43
2022-10-05T16:36:07.396Z,13.33
2022-10-05T16:46:27.705Z,12.00
2022-10-05T16:56:42.362Z,13.48
2022-10-05T17:06:43.795Z,15.70
2022-10-05T17:16:56.850Z,12.93
2022-10-05T17:27:15.339Z,18.50
2022-10-05T17:37:30.897Z,15.40
2022-10-05T17:47:58.453Z,18.05
2022-10-05T17:58:25.631Z,17.87
2022-10-05T18:08:36.854Z,15.43
2022-10-05T18:18:44.598Z,15.60
2022-10-05T18:29:04.768Z,17.70
2022-10-05T18:39:24.741Z,19.23
2022-10-05T18:49:53.245Z,16.93
2022-10-05T19:00:01.945Z,16.27
2022-10-05T19:10:08.081Z,24.37
2022-10-05T19:20:20.124Z,15.97
2022-10-05T19:30:26.890Z,17.75
2022-10-05T19:40:56.248Z,20.43
2022-10-05T19:50:59.508Z,20.77
2022-10-05T20:01:02.652Z,21.03
2022-10-05T20:11:09.409Z,18.57
2022-10-05T20:21:37.933Z,19.27
2022-10-05T20:31:39.402Z,18.33
2022-10-05T20:41:41.619Z,18.83
2022-10-05T20:51:43.065Z,18.40
2022-10-05T21:01:45.654Z,19.33
2022-10-05T21:11:48.919Z,19.50
2022-10-05T21:21:50.415Z,18.03
2022-10-05T21:31:52.255Z,16.73
2022-10-05T21:41:55.194Z,18.23
2022-10-05T21:51:57.916Z,19.53
2022-10-05T22:01:59.433Z,20.67
2022-10-05T22:12:00.927Z,23.40
2022-10-05T22:22:02.359Z,20.23
2022-10-05T22:32:03.885Z,18.70
2022-10-05T22:42:06.332Z,23.33
2022-10-05T22:52:07.797Z,20.13
2022-10-05T23:02:10.090Z,19.20
2022-10-05T23:12:11.630Z,22.80
2022-10-05T23:22:13.093Z,21.23
2022-10-05T23:32:14.556Z,19.70
2022-10-05T23:42:16.033Z,19.63
2022-10-05T23:52:17.460Z,20.87
